Swanburg, Minnesota
Current Conditions -  °F | °C
As of 9:53 PM on Monday 22 Dec 2014 (Local Time) from KPWC Reporting Station
Drizzle Drizzle  
Wind Chill: 29°   Ceiling: 400
Heat Index: 34°   Visibility: 3mi
Dew Point: 34°   Wind: 6mph
Humidity: 100%   Direction: 90°E
Pressure: 29.72"   Gusts: NA
Location:  46.6535°N, 94.5389°W
Report Text: KPWC 230353Z AUTO 09005KT 3SM DZ OVC004 01/01 A2972 RMK AO2
Loading
Personal Weather Stations






























Interactive Weather Map New forecast layout! Learn more

10-Day Weather Forecast

Advertisements
Track Severe Weather on mobile